Fire Weather Observation
Issued by NWS Grand Junction, CO

Home | Current Version | Previous Version | Graphics & Text | Print | Product List | Glossary On
Versions: 1 2 3 4 5 6 7 8 9 10 11 12 13 14 15 16 17 18 19 20 21 22 23 24 25 26 27 28
000
SHUS65 KGJT 292019
FWOGJT

DAILY FIRE WEATHER OBSERVATION
NATIONAL WEATHER SERVICE GRAND JUNCTION CO
212 PM MDT MON MAY 29 2017

STATE OF THE WEATHER (W)               1
DRY BULB TEMPERATURE                   80   DEGREES FAHRENHEIT
RELATIVE HUMIDITY (RH)                 13   PERCENT
LIGHTNING ACTIVITY LEVEL
  (LAL - MIDNIGHT TO 2 PM)             1
WIND DIRECTION                         180  DEGREES (C IF CALM)
WIND SPEED                             5    MPH
MAX TEMP (2 PM - 2 PM)                 80   DEGREES FAHRENHEIT
MIN TEMP (2 PM - 2 PM)                 50   DEGREES FAHRENHEIT
MAX RH (2 PM - 2 PM)                   42   PERCENT
MIN RH (2 PM - 2 PM)                   8    PERCENT
PCPN DURATION                          0.0  HOURS
PCPN AMT (2 PM - 2 PM)                 0.0  INCHES
LAL (2 PM - 2 PM)                      1

$$

METAR KGJT 291953Z 18004KT 10SM CLR 27/M04 A3011 RMK AO2 SLP133
      T02671039



USA.gov is the U.S. government's official web portal to all federal, state and local government web resources and services.